Time;durP1;ratioP1;P1;durP2;ratioP2;P2;SDS_P1;SDS_P2;PMS_P1;PMS_P2;Temp;Humidity;BMP_temperature;BMP_pressure;BME280_temperature;BME280_humidity;BME280_pressure;Samples;Min_cycle;Max_cycle;Signal;HPM_P1;HPM_P2
2022/01/08 01:53:44;;;;;;;29.30;13.63;;;;;;;-3.42;100.00;94176.38;5393378;23;20161;-84
2022/01/08 01:56:10;;;;;;;21.60;10.75;;;;;;;-3.29;100.00;94176.50;4982738;28;20065;-84
2022/01/08 01:58:35;;;;;;;23.92;10.35;;;;;;;-3.29;100.00;94168.81;4976928;28;20069;-84
2022/01/08 02:01:01;;;;;;;20.00;8.35;;;;;;;-3.05;100.00;94174.47;4998762;28;20046;-84
2022/01/08 02:03:26;;;;;;;20.63;8.27;;;;;;;-2.93;100.00;94166.28;4976410;28;20070;-84
2022/01/08 02:05:52;;;;;;;16.20;8.20;;;;;;;-2.82;100.00;94168.31;4990245;28;20038;-84
2022/01/08 02:08:17;;;;;;;15.63;6.97;;;;;;;-2.81;100.00;94162.22;4989068;28;20337;-84
2022/01/08 02:10:43;;;;;;;15.02;6.93;;;;;;;-2.79;100.00;94165.38;4965569;28;20054;-84
2022/01/08 02:13:08;;;;;;;14.63;6.82;;;;;;;-2.79;100.00;94149.22;4980616;28;20049;-84
2022/01/08 02:15:35;;;;;;;15.65;6.80;;;;;;;-2.71;100.00;94139.59;4998388;28;20439;-84
2022/01/08 02:18:03;;;;;;;14.35;7.10;;;;;;;-2.75;100.00;94132.47;4964453;28;20042;-84
2022/01/08 02:20:28;;;;;;;11.82;6.00;;;;;;;-2.81;100.00;94135.75;4961351;28;20034;-84
2022/01/08 02:23:03;;;;;;;17.60;7.00;;;;;;;-2.79;100.00;94126.91;4980194;28;20351;-84
2022/01/08 02:25:29;;;;;;;16.27;7.97;;;;;;;-2.86;100.00;94120.97;4978756;28;20110;-84
2022/01/08 02:27:55;;;;;;;16.02;7.75;;;;;;;-2.81;100.00;94121.19;4962615;28;20097;-84
2022/01/08 02:30:20;;;;;;;22.55;9.50;;;;;;;-2.78;100.00;94120.03;4962754;28;20502;-84
2022/01/08 02:32:46;;;;;;;18.38;8.95;;;;;;;-2.77;100.00;94108.78;4980029;28;20043;-85
2022/01/08 02:35:11;;;;;;;17.90;9.05;;;;;;;-2.74;100.00;94105.81;4962744;28;20093;-84
2022/01/08 02:37:37;;;;;;;18.58;8.68;;;;;;;-2.80;100.00;94104.00;4962347;28;20042;-85
2022/01/08 02:40:04;;;;;;;18.65;8.82;;;;;;;-2.79;100.00;94101.25;4962386;28;20039;-85
2022/01/08 02:42:37;;;;;;;15.10;8.45;;;;;;;-2.85;100.00;94096.91;4962035;28;20230;-85
2022/01/08 02:45:04;;;;;;;16.38;8.05;;;;;;;-2.94;100.00;94098.84;4979587;28;20026;-84
2022/01/08 02:47:29;;;;;;;18.83;6.95;;;;;;;-2.93;100.00;94099.63;4962356;28;20026;-85
2022/01/08 02:49:54;;;;;;;15.52;6.75;;;;;;;-2.94;100.00;94095.47;4946221;28;20081;-85
2022/01/08 02:52:22;;;;;;;17.58;7.70;;;;;;;-3.00;100.00;94090.13;4962312;28;20030;-85
2022/01/08 02:54:47;;;;;;;18.67;9.27;;;;;;;-3.00;100.00;94095.25;4962056;28;20034;-84
2022/01/08 02:57:12;;;;;;;24.55;9.13;;;;;;;-3.06;100.00;94092.66;4979557;28;20038;-85
2022/01/08 02:59:38;;;;;;;24.80;10.93;;;;;;;-3.05;100.00;94084.75;4979051;28;20408;-85
2022/01/08 03:02:03;;;;;;;24.75;10.80;;;;;;;-3.08;100.00;94084.38;4978009;28;20074;-84
2022/01/08 03:04:29;;;;;;;24.92;10.85;;;;;;;-3.02;100.00;94083.59;4961852;28;20407;-85
2022/01/08 03:06:56;;;;;;;23.90;11.88;;;;;;;-3.02;100.00;94086.94;4961850;28;20031;-85
2022/01/08 03:09:22;;;;;;;27.40;12.55;;;;;;;-3.14;100.00;94078.22;4977810;28;20038;-84
2022/01/08 03:11:47;;;;;;;29.42;13.13;;;;;;;-3.17;100.00;94074.25;4979244;28;20421;-84
2022/01/08 03:14:13;;;;;;;25.00;12.68;;;;;;;-3.09;100.00;94070.75;4961673;28;20039;-85
2022/01/08 03:16:38;;;;;;;25.65;12.25;;;;;;;-3.06;100.00;94059.34;4978945;28;20031;-85
2022/01/08 03:19:10;;;;;;;28.80;13.60;;;;;;;-3.27;100.00;94068.66;4978971;28;20046;-85
2022/01/08 03:21:38;;;;;;;29.27;12.70;;;;;;;-3.47;100.00;94068.53;4962360;28;20031;-84
2022/01/08 03:24:06;;;;;;;22.85;12.23;;;;;;;-3.41;100.00;94073.72;4979070;28;20034;-85
2022/01/08 03:26:32;;;;;;;26.33;11.80;;;;;;;-3.39;100.00;94067.59;4961657;28;20054;-85
2022/01/08 03:28:57;;;;;;;25.58;11.73;;;;;;;-3.51;100.00;94075.03;4978898;28;20124;-85
2022/01/08 03:31:24;;;;;;;27.67;11.85;;;;;;;-3.60;100.00;94070.03;4961315;28;20031;-84
2022/01/08 03:33:50;;;;;;;30.48;12.65;;;;;;;-3.74;100.00;94068.34;4978900;28;20031;-84
2022/01/08 03:36:17;;;;;;;26.83;13.57;;;;;;;-3.91;100.00;94063.50;4977703;28;20352;-85
2022/01/08 03:38:43;;;;;;;30.13;14.18;;;;;;;-3.95;100.00;94069.97;4961326;28;20053;-84
2022/01/08 03:41:09;;;;;;;31.77;14.20;;;;;;;-3.98;100.00;94060.09;4977323;28;20030;-85
2022/01/08 03:43:34;;;;;;;28.08;13.48;;;;;;;-3.99;100.00;94066.19;4961510;28;20041;-84
2022/01/08 03:46:02;;;;;;;27.50;13.27;;;;;;;-3.94;100.00;94069.00;4961222;28;20042;-84
2022/01/08 03:48:31;;;;;;;25.73;11.75;;;;;;;-4.04;100.00;94069.31;4978682;28;20055;-84
2022/01/08 03:50:58;;;;;;;27.23;12.98;;;;;;;-4.10;100.00;94076.94;4945650;28;20030;-84
2022/01/08 03:53:25;;;;;;;29.58;13.75;;;;;;;-4.24;100.00;94078.56;4961097;28;20150;-84
2022/01/08 03:55:51;;;;;;;34.47;14.68;;;;;;;-4.16;100.00;94081.00;4961206;28;20042;-84
2022/01/08 03:58:16;;;;;;;26.92;12.95;;;;;;;-4.04;100.00;94084.66;4977024;28;20347;-84
2022/01/08 04:00:42;;;;;;;25.35;13.32;;;;;;;-3.88;100.00;94080.25;4961102;28;20042;-84
2022/01/08 04:03:08;;;;;;;27.45;13.48;;;;;;;-3.60;100.00;94075.16;4960920;28;20075;-84
2022/01/08 04:05:33;;;;;;;26.48;13.38;;;;;;;-3.61;100.00;94073.56;4945110;28;20054;-84
2022/01/08 04:07:59;;;;;;;25.00;12.18;;;;;;;-3.79;100.00;94066.38;4960798;28;20030;-85
2022/01/08 04:10:24;;;;;;;27.33;12.75;;;;;;;-4.06;100.00;94073.03;4944827;28;20027;-84
2022/01/08 04:12:55;;;;;;;29.27;13.45;;;;;;;-4.17;100.00;94066.63;4978302;28;20034;-85
2022/01/08 04:17:52;;;;;;;23.15;11.10;;;;;;;-4.02;100.00;94067.34;4976846;28;20085;-84
2022/01/08 04:20:19;;;;;;;29.20;12.27;;;;;;;-4.13;100.00;94060.97;4944713;28;20050;-84
2022/01/08 04:22:47;;;;;;;27.38;13.43;;;;;;;-4.05;100.00;94072.84;4960800;28;20351;-84
2022/01/08 04:25:14;;;;;;;25.77;12.63;;;;;;;-4.09;100.00;94068.28;4961270;28;20051;-85
2022/01/08 04:27:39;;;;;;;16.70;8.23;;;;;;;-3.97;100.00;94062.47;4944842;28;20420;-85
2022/01/08 04:30:05;;;;;;;18.38;9.63;;;;;;;-3.93;100.00;94068.00;4960610;28;20065;-85
2022/01/08 04:32:31;;;;;;;19.75;9.43;;;;;;;-3.82;100.00;94064.16;4978375;28;20070;-85
2022/01/08 04:34:56;;;;;;;28.38;11.93;;;;;;;-4.15;100.00;94068.03;4960420;28;20066;-85
2022/01/08 04:37:22;;;;;;;26.50;11.48;;;;;;;-4.34;100.00;94066.06;4961886;28;20438;-85
2022/01/08 04:39:47;;;;;;;26.65;12.18;;;;;;;-4.49;100.00;94069.47;4991444;28;20046;-85
2022/01/08 04:42:13;;;;;;;26.27;12.98;;;;;;;-4.60;100.00;94069.94;4979738;28;20030;-85
2022/01/08 04:44:38;;;;;;;32.53;13.18;;;;;;;-4.51;100.00;94073.97;4978619;28;20428;-84
2022/01/08 04:47:04;;;;;;;22.60;11.40;;;;;;;-4.52;100.00;94076.69;4980070;28;20044;-85
2022/01/08 04:49:29;;;;;;;11.82;5.63;;;;;;;-4.20;100.00;94079.78;4970930;28;20042;-85
2022/01/08 04:51:55;;;;;;;9.18;4.25;;;;;;;-4.03;100.00;94076.00;4977442;28;20034;-85
2022/01/08 04:54:21;;;;;;;10.07;4.50;;;;;;;-3.84;100.00;94072.03;4979763;28;20030;-85
2022/01/08 04:56:46;;;;;;;9.27;3.75;;;;;;;-3.64;100.00;94073.94;4979627;28;20022;-85
2022/01/08 04:59:12;;;;;;;10.23;4.80;;;;;;;-3.69;100.00;94073.72;4979445;28;20026;-85
2022/01/08 05:01:37;;;;;;;10.23;4.88;;;;;;;-3.64;100.00;94071.38;4979843;28;20034;-85
2022/01/08 05:04:03;;;;;;;8.43;3.78;;;;;;;-3.63;100.00;94074.75;4975756;28;20049;-85
2022/01/08 05:06:28;;;;;;;6.60;3.50;;;;;;;-3.52;100.00;94076.00;4966646;28;20137;-85
2022/01/08 05:08:54;;;;;;;6.40;3.17;;;;;;;-3.53;100.00;94074.44;5000848;28;20026;-85
2022/01/08 05:11:20;;;;;;;5.50;3.03;;;;;;;-3.46;100.00;94077.81;4967310;28;20027;-85
2022/01/08 05:13:45;;;;;;;7.40;3.83;;;;;;;-3.55;100.00;94077.97;4983293;28;20029;-85
2022/01/08 05:16:11;;;;;;;8.18;3.40;;;;;;;-3.52;100.00;94081.13;5000817;28;20113;-85
2022/01/08 05:18:37;;;;;;;6.95;3.80;;;;;;;-3.68;100.00;94075.31;4967223;28;20119;-85
2022/01/08 05:23:46;;;;;;;7.40;3.58;;;;;;;-3.92;100.00;94072.16;4986040;28;20125;-85
2022/01/08 05:26:12;;;;;;;6.95;3.42;;;;;;;-4.19;100.00;94071.16;4967068;28;20169;-85
2022/01/08 05:28:37;;;;;;;5.93;3.30;;;;;;;-4.22;100.00;94079.97;4982994;28;20058;-85
2022/01/08 05:31:03;;;;;;;6.13;3.33;;;;;;;-4.14;100.00;94079.84;4982899;28;20026;-85
2022/01/08 05:33:29;;;;;;;6.00;3.10;;;;;;;-4.20;100.00;94075.44;4982817;28;20052;-85
2022/01/08 05:35:54;;;;;;;8.75;3.45;;;;;;;-4.28;100.00;94073.81;4982817;28;20424;-84
2022/01/08 05:38:19;;;;;;;7.43;2.65;;;;;;;-4.31;100.00;94070.81;4966877;28;20116;-85
2022/01/08 05:40:45;;;;;;;11.05;3.78;;;;;;;-4.35;100.00;94070.41;4982942;28;20049;-85
2022/01/08 05:43:11;;;;;;;7.22;2.38;;;;;;;-4.27;100.00;94062.59;5000309;28;20042;-85
2022/01/08 05:45:36;;;;;;;6.03;2.72;;;;;;;-4.38;100.00;94067.41;5000367;28;20068;-85
2022/01/08 05:48:01;;;;;;;3.75;2.15;;;;;;;-4.50;100.00;94055.09;5000364;28;20038;-84
2022/01/08 05:50:27;;;;;;;6.05;2.90;;;;;;;-4.47;100.00;94052.16;4966633;28;20022;-85
2022/01/08 05:52:52;;;;;;;6.43;2.95;;;;;;;-4.49;100.00;94054.13;4982641;28;20046;-85
2022/01/08 05:55:18;;;;;;;4.25;2.40;;;;;;;-4.56;100.00;94056.59;4982906;28;20039;-85
2022/01/08 05:57:43;;;;;;;5.45;2.58;;;;;;;-4.45;100.00;94057.88;4999866;28;20054;-85
2022/01/08 06:00:10;;;;;;;4.18;2.33;;;;;;;-4.41;100.00;94061.69;4982304;28;20062;-85
2022/01/08 06:02:36;;;;;;;5.22;1.92;;;;;;;-4.38;100.00;94057.19;4982762;28;20093;-85
2022/01/08 06:05:02;;;;;;;3.85;1.90;;;;;;;-3.92;100.00;94064.47;4999726;28;20037;-85
2022/01/08 06:07:28;;;;;;;5.43;1.75;;;;;;;-3.74;100.00;94063.22;4966277;28;20034;-84
2022/01/08 06:09:53;;;;;;;4.32;2.20;;;;;;;-3.70;100.00;94055.00;4999847;28;20026;-85
2022/01/08 06:12:19;;;;;;;9.73;2.30;;;;;;;-3.57;100.00;94049.19;4982549;28;20044;-85
2022/01/08 06:14:44;;;;;;;5.40;1.80;;;;;;;-3.66;100.00;94047.75;4982370;28;20423;-85
2022/01/08 06:17:10;;;;;;;4.38;2.00;;;;;;;-3.81;100.00;94045.25;4981393;28;20030;-85
2022/01/08 06:19:36;;;;;;;7.75;2.20;;;;;;;-3.78;100.00;94050.03;4982022;28;20057;-84
2022/01/08 06:22:03;;;;;;;4.60;2.55;;;;;;;-4.15;100.00;94044.22;4982106;28;20076;-85
2022/01/08 06:24:28;;;;;;;5.65;2.25;;;;;;;-4.12;100.00;94031.03;4998575;28;20430;-85
2022/01/08 06:26:54;;;;;;;3.47;1.90;;;;;;;-4.28;100.00;94026.97;4982000;28;20108;-85
2022/01/08 06:29:20;;;;;;;4.75;2.47;;;;;;;-4.47;100.00;94024.03;4982002;28;20383;-84
2022/01/08 06:31:45;;;;;;;6.15;2.63;;;;;;;-4.48;100.00;94024.25;4999564;28;20034;-85
2022/01/08 06:34:11;;;;;;;7.20;3.03;;;;;;;-4.55;100.00;94024.94;4965922;28;20033;-85
2022/01/08 06:36:36;;;;;;;7.32;3.42;;;;;;;-4.50;100.00;94016.72;4998314;28;20034;-85
2022/01/08 06:39:02;;;;;;;11.32;4.28;;;;;;;-4.57;100.00;94014.13;4999230;28;20030;-85
2022/01/08 06:41:29;;;;;;;9.07;3.72;;;;;;;-4.60;100.00;94008.56;4965756;28;20339;-85
2022/01/08 06:43:57;;;;;;;5.78;3.00;;;;;;;-4.70;100.00;94008.88;4981794;28;20026;-85
2022/01/08 06:46:23;;;;;;;7.68;3.00;;;;;;;-4.70;100.00;94014.78;4981406;28;20037;-85
2022/01/08 06:48:49;;;;;;;4.57;2.15;;;;;;;-4.64;100.00;94018.38;4964734;28;20037;-85
2022/01/08 06:51:14;;;;;;;2.78;1.80;;;;;;;-4.58;100.00;94012.53;4992245;28;20030;-85
2022/01/08 06:53:40;;;;;;;4.10;2.00;;;;;;;-4.51;100.00;94011.81;4964868;28;20042;-84
2022/01/08 06:56:05;;;;;;;4.50;2.50;;;;;;;-4.43;100.00;94012.50;4998596;28;20065;-85
2022/01/08 06:58:31;;;;;;;7.00;3.15;;;;;;;-4.47;100.00;94026.59;4981047;28;20035;-85
2022/01/08 07:01:00;;;;;;;4.60;2.20;;;;;;;-4.48;100.00;94029.34;4980720;28;20041;-85
2022/01/08 07:03:25;;;;;;;5.28;2.60;;;;;;;-4.36;100.00;94029.66;4980563;28;20034;-85
2022/01/08 07:05:51;;;;;;;3.42;1.70;;;;;;;-4.18;100.00;94032.56;4981207;28;20030;-85
2022/01/08 07:08:16;;;;;;;4.63;2.65;;;;;;;-4.07;100.00;94033.06;4980611;28;20099;-86
2022/01/08 07:10:42;;;;;;;4.60;1.88;;;;;;;-4.06;100.00;94039.75;4964694;28;20027;-85
2022/01/08 07:13:07;;;;;;;4.72;2.50;;;;;;;-4.05;100.00;94051.56;4980707;28;20026;-85
2022/01/08 07:15:33;;;;;;;4.28;2.08;;;;;;;-4.07;100.00;94048.41;4980918;28;20038;-85
2022/01/08 07:17:58;;;;;;;4.40;1.85;;;;;;;-3.89;100.00;94071.00;4964560;28;20471;-85
2022/01/08 07:20:24;;;;;;;4.10;2.08;;;;;;;-3.72;100.00;94072.31;4980513;28;20036;-85
2022/01/08 07:22:50;;;;;;;4.13;2.17;;;;;;;-3.54;100.00;94073.63;4996629;28;20034;-85
2022/01/08 07:25:15;;;;;;;4.03;2.17;;;;;;;-3.50;100.00;94079.97;4996524;28;20333;-85
2022/01/08 07:27:41;;;;;;;4.63;2.55;;;;;;;-3.43;100.00;94090.28;4997238;28;20354;-85
2022/01/08 07:30:08;;;;;;;5.45;2.25;;;;;;;-3.59;100.00;94092.09;4961226;28;20030;-85
2022/01/08 07:32:48;;;;;;;3.38;1.40;;;;;;;-2.91;100.00;94110.47;4960100;28;20041;-84
2022/01/08 07:35:15;;;;;;;2.72;1.95;;;;;;;-2.77;100.00;94107.00;4993242;28;20030;-85
2022/01/08 07:37:41;;;;;;;5.15;2.45;;;;;;;-2.73;100.00;94105.63;4968938;28;20034;-85
2022/01/08 07:40:08;;;;;;;5.47;2.40;;;;;;;-2.75;100.00;94105.03;4974640;28;20446;-85
2022/01/08 07:42:33;;;;;;;5.28;2.58;;;;;;;-2.73;100.00;94107.41;4961479;28;20030;-85
2022/01/08 07:44:59;;;;;;;5.30;2.70;;;;;;;-2.69;100.00;94100.91;4945336;28;20048;-86
2022/01/08 07:47:25;;;;;;;5.40;2.92;;;;;;;-2.60;100.00;94101.53;4961312;28;20033;-85
2022/01/08 07:49:50;;;;;;;6.55;2.60;;;;;;;-2.70;100.00;94104.47;4968842;28;20034;-85
2022/01/08 07:52:16;;;;;;;5.43;2.60;;;;;;;-2.71;100.00;94101.13;4965695;28;20041;-85
2022/01/08 07:54:42;;;;;;;4.78;2.20;;;;;;;-2.69;100.00;94100.91;4987617;28;20128;-86
2022/01/08 07:57:07;;;;;;;3.95;2.10;;;;;;;-2.74;100.00;94101.47;4990319;28;20116;-85
2022/01/08 07:59:33;;;;;;;11.43;2.97;;;;;;;-2.88;100.00;94100.63;4964059;28;20030;-85
2022/01/08 08:01:58;;;;;;;4.03;2.40;;;;;;;-2.94;100.00;94098.03;4997896;28;20395;-85
2022/01/08 08:04:24;;;;;;;6.78;2.88;;;;;;;-2.91;100.00;94102.78;4963938;28;20313;-85
2022/01/08 08:06:49;;;;;;;6.95;3.42;;;;;;;-3.16;100.00;94093.78;4997528;28;20030;-85
2022/01/08 08:09:15;;;;;;;6.28;3.55;;;;;;;-2.91;100.00;94095.91;4979972;28;20026;-85
2022/01/08 08:11:41;;;;;;;6.50;3.40;;;;;;;-3.02;100.00;94093.84;4980035;28;20084;-85
2022/01/08 08:14:07;;;;;;;7.25;3.63;;;;;;;-3.25;100.00;94091.56;4964152;28;20324;-85
2022/01/08 08:16:33;;;;;;;6.63;3.58;;;;;;;-3.51;100.00;94086.06;4980062;28;20044;-85
2022/01/08 08:18:58;;;;;;;8.15;3.40;;;;;;;-3.56;100.00;94083.25;4979859;28;20022;-85
2022/01/08 08:21:24;;;;;;;7.45;3.58;;;;;;;-3.48;100.00;94085.69;4980032;28;20034;-86
2022/01/08 08:23:49;;;;;;;7.90;3.10;;;;;;;-3.38;100.00;94090.50;4980271;28;20114;-85
2022/01/08 08:26:15;;;;;;;7.65;2.85;;;;;;;-3.31;100.00;94100.78;4979934;28;20037;-86
2022/01/08 08:28:40;;;;;;;8.18;2.80;;;;;;;-3.18;100.00;94098.31;4964008;28;20347;-85
2022/01/08 08:31:06;;;;;;;5.22;2.40;;;;;;;-3.06;100.00;94095.22;4963924;28;20027;-85
2022/01/08 08:33:31;;;;;;;5.38;2.90;;;;;;;-2.97;100.00;94095.84;4980170;28;20049;-85
2022/01/08 08:35:57;;;;;;;6.72;2.97;;;;;;;-2.87;100.00;94102.22;4979861;28;20038;-85
2022/01/08 08:38:22;;;;;;;6.22;3.17;;;;;;;-2.85;100.00;94107.94;4978430;28;20031;-86
2022/01/08 08:40:49;;;;;;;5.85;2.88;;;;;;;-2.79;100.00;94110.75;4961650;28;20113;-84
2022/01/08 08:43:14;;;;;;;5.22;3.08;;;;;;;-2.72;100.00;94096.97;4992066;28;20510;-84
2022/01/08 08:45:40;;;;;;;5.65;3.03;;;;;;;-2.60;100.00;94102.34;4957937;28;20086;-84
2022/01/08 08:48:05;;;;;;;4.75;2.75;;;;;;;-2.52;100.00;94105.69;4964666;28;20042;-84
2022/01/08 08:50:31;;;;;;;5.93;2.70;;;;;;;-2.45;100.00;94104.75;4964253;28;20026;-85
2022/01/08 08:52:56;;;;;;;12.07;3.42;;;;;;;-2.30;100.00;94109.75;4964598;28;20042;-86
2022/01/08 08:55:22;;;;;;;4.78;2.70;;;;;;;-2.15;100.00;94106.22;4964514;28;20035;-85
2022/01/08 08:57:47;;;;;;;8.57;2.72;;;;;;;-2.17;100.00;94098.69;4948693;28;20027;-85
2022/01/08 09:00:13;;;;;;;7.32;2.83;;;;;;;-2.16;100.00;94095.16;4948165;28;20033;-85
2022/01/08 09:02:40;;;;;;;5.55;3.03;;;;;;;-2.19;100.00;94095.53;4980469;28;20042;-85
2022/01/08 09:05:06;;;;;;;5.32;2.58;;;;;;;-2.02;100.00;94092.59;4948627;28;20511;-86
2022/01/08 09:07:33;;;;;;;5.55;2.70;;;;;;;-2.08;100.00;94098.53;4964233;28;20089;-85
2022/01/08 09:09:58;;;;;;;4.40;2.45;;;;;;;-2.08;100.00;94098.53;4963970;28;20325;-86
2022/01/08 09:12:24;;;;;;;5.25;2.60;;;;;;;-2.08;100.00;94098.53;4964146;28;20062;-85
2022/01/08 09:14:49;;;;;;;8.18;2.92;;;;;;;-1.93;100.00;94098.38;4981483;28;20035;-86
2022/01/08 09:17:15;;;;;;;5.68;2.72;;;;;;;-1.88;100.00;94091.63;4964056;28;20347;-85
2022/01/08 09:19:42;;;;;;;4.82;2.80;;;;;;;-1.78;100.00;94093.03;4973607;28;20118;-86
2022/01/08 09:22:07;;;;;;;7.55;2.53;;;;;;;-1.66;100.00;94091.47;4948036;28;20034;-86
2022/01/08 09:24:34;;;;;;;3.78;2.22;;;;;;;-1.52;100.00;94086.34;4963792;28;20325;-85
2022/01/08 09:26:59;;;;;;;5.93;2.90;;;;;;;-1.44;100.00;94086.91;4947869;28;20026;-86
2022/01/08 09:29:25;;;;;;;4.25;2.70;;;;;;;-1.44;100.00;94102.34;4979854;28;20069;-85
2022/01/08 09:31:51;;;;;;;5.38;2.72;;;;;;;-1.32;100.00;94094.03;4947979;28;20133;-85
2022/01/08 09:34:16;;;;;;;5.78;2.85;;;;;;;-1.22;100.00;94093.63;4947868;28;20030;-86
2022/01/08 09:36:43;;;;;;;5.82;2.65;;;;;;;-1.22;100.00;94094.41;4963505;28;20033;-85
2022/01/08 09:39:09;;;;;;;4.60;2.58;;;;;;;-1.18;100.00;94089.66;4963800;28;20031;-86
2022/01/08 09:41:35;;;;;;;7.88;2.90;;;;;;;-1.22;100.00;94085.91;4963558;28;20041;-86
2022/01/08 09:44:00;;;;;;;4.70;2.47;;;;;;;-1.10;100.00;94094.59;4963843;28;20031;-86
2022/01/08 09:46:26;;;;;;;7.63;2.17;;;;;;;-1.00;100.00;94091.59;4963180;28;20038;-86
2022/01/08 09:48:51;;;;;;;5.45;2.50;;;;;;;-0.91;100.00;94087.03;4963153;28;20430;-86
2022/01/08 09:51:17;;;;;;;4.85;2.47;;;;;;;-0.87;100.00;94090.75;4980255;28;20344;-86
2022/01/08 09:53:46;;;;;;;4.03;2.30;;;;;;;-0.74;100.00;94084.81;4963279;28;20034;-86
2022/01/08 09:56:14;;;;;;;4.65;2.22;;;;;;;-0.57;100.00;94074.84;4964147;28;20031;-85
2022/01/08 09:58:40;;;;;;;5.68;2.72;;;;;;;-0.44;100.00;94079.91;4963369;28;20491;-85
2022/01/08 10:01:30;;;;;;;4.38;2.35;;;;;;;-0.50;100.00;94085.91;4947240;28;20042;-86
2022/01/08 10:03:58;;;;;;;7.55;2.55;;;;;;;-0.38;100.00;94091.19;4963407;28;20022;-86
2022/01/08 10:06:26;;;;;;;4.75;2.30;;;;;;;-0.25;100.00;94086.97;4963293;28;20211;-86
2022/01/08 10:08:52;;;;;;;6.18;2.15;;;;;;;-0.18;100.00;94092.88;4947001;28;20080;-85
2022/01/08 10:11:19;;;;;;;4.75;2.58;;;;;;;-0.19;100.00;94102.38;4963083;28;20026;-86
2022/01/08 10:13:47;;;;;;;6.32;2.58;;;;;;;-0.19;100.00;94104.19;4963067;28;20062;-85
2022/01/08 10:18:59;;;;;;;3.65;2.20;;;;;;;-0.06;100.00;94106.69;4979863;28;20516;-86
2022/01/08 10:21:27;;;;;;;3.50;2.05;;;;;;;-0.13;100.00;94100.00;4962698;28;20062;-86
2022/01/08 10:23:56;;;;;;;3.83;2.28;;;;;;;-0.28;100.00;94103.63;4946862;28;20455;-86
2022/01/08 10:26:24;;;;;;;3.65;2.28;;;;;;;-0.21;100.00;94101.81;4962943;28;20027;-85
2022/01/08 10:28:56;;;;;;;5.18;2.35;;;;;;;0.04;100.00;94088.19;4946828;28;20027;-86
2022/01/08 10:31:30;;;;;;;4.00;1.98;;;;;;;0.22;100.00;94097.78;4963037;28;20038;-86
2022/01/08 10:34:01;;;;;;;5.63;2.70;;;;;;;0.23;100.00;94098.56;4962813;28;20034;-86
2022/01/08 10:36:28;;;;;;;3.65;1.95;;;;;;;0.23;100.00;94101.94;4978687;28;20034;-86
2022/01/08 10:38:58;;;;;;;4.05;2.05;;;;;;;0.32;100.00;94105.06;4962538;28;20031;-86
2022/01/08 10:41:25;;;;;;;3.10;1.88;;;;;;;0.33;100.00;94105.84;4946784;28;20049;-86
2022/01/08 10:44:08;;;;;;;3.65;2.10;;;;;;;0.41;100.00;94108.16;4962370;28;20177;-85
2022/01/08 10:46:34;;;;;;;8.25;3.55;;;;;;;0.60;100.00;94098.69;4946536;28;20031;-85
2022/01/08 10:49:00;;;;;;;5.30;2.63;;;;;;;0.72;100.00;94095.41;4946325;28;20033;-85
2022/01/08 10:51:26;;;;;;;5.00;2.60;;;;;;;0.76;100.00;94106.91;4946445;28;20419;-86
2022/01/08 10:53:51;;;;;;;7.03;3.30;;;;;;;0.76;100.00;94096.59;4962321;28;20096;-86
2022/01/08 10:56:24;;;;;;;4.50;2.60;;;;;;;0.85;100.00;94090.13;4979355;28;20030;-86
2022/01/08 10:58:52;;;;;;;3.72;2.05;;;;;;;0.80;100.00;94098.53;4979086;28;20429;-86
2022/01/08 11:01:39;;;;;;;4.30;2.08;;;;;;;1.05;100.00;94100.25;4962918;28;20092;-86
2022/01/08 11:04:09;;;;;;;7.20;3.20;;;;;;;0.99;100.00;94101.91;4961466;28;20170;-86
2022/01/08 11:06:56;;;;;;;6.20;2.67;;;;;;;1.05;100.00;94092.53;4962417;28;20035;-86
2022/01/08 11:09:22;;;;;;;3.97;2.30;;;;;;;1.26;100.00;94086.16;4945630;28;20041;-86
2022/01/08 11:11:50;;;;;;;6.18;3.10;;;;;;;1.34;100.00;94076.56;4961639;28;20336;-86
2022/01/08 11:14:46;;;;;;;4.93;3.10;;;;;;;1.37;100.00;94076.13;4962079;28;20117;-86
2022/01/08 11:17:10;;;;;;;;;;;;;;;1.41;100.00;94069.50;4965269;28;20037;-86
2022/01/08 11:19:37;;;;;;;9.80;3.47;;;;;;;1.45;100.00;94075.84;4977868;28;19910;-86
2022/01/08 11:22:04;;;;;;;7.97;3.25;;;;;;;1.73;100.00;94063.38;4945834;28;20041;-86
2022/01/08 11:24:31;;;;;;;5.43;2.85;;;;;;;1.71;100.00;94067.97;4946308;28;20030;-86
2022/01/08 11:26:57;;;;;;;6.15;3.13;;;;;;;1.84;100.00;94058.22;4946139;28;20035;-86
2022/01/08 11:29:25;;;;;;;6.03;2.80;;;;;;;1.69;100.00;94055.25;4961913;28;20344;-86
2022/01/08 11:31:55;;;;;;;6.68;3.10;;;;;;;1.71;100.00;94055.81;4961898;28;20038;-86
2022/01/08 11:34:23;;;;;;;4.60;2.80;;;;;;;1.65;100.00;94044.59;4945867;28;20462;-86
2022/01/08 11:36:50;;;;;;;4.03;2.58;;;;;;;1.63;100.00;94035.50;4961789;28;20027;-86
2022/01/08 11:39:16;;;;;;;8.88;3.20;;;;;;;1.74;100.00;94039.91;4978663;28;20073;-86
2022/01/08 11:41:42;;;;;;;4.20;2.72;;;;;;;1.73;100.00;94038.34;4945464;28;20063;-86
2022/01/08 11:44:08;;;;;;;4.05;2.70;;;;;;;1.92;100.00;94030.53;4945476;28;20146;-86
2022/01/08 11:46:37;;;;;;;4.47;2.90;;;;;;;1.88;100.00;94027.59;4945609;28;20447;-86
2022/01/08 11:49:03;;;;;;;6.65;3.03;;;;;;;1.86;100.00;94029.59;4961500;28;20030;-86
2022/01/08 11:51:29;;;;;;;5.57;2.50;;;;;;;1.86;100.00;94019.28;4961291;28;20066;-86
2022/01/08 11:53:59;;;;;;;6.95;2.95;;;;;;;1.94;100.00;94013.00;4960974;28;20094;-86
2022/01/08 11:56:29;;;;;;;5.53;2.58;;;;;;;2.04;100.00;94012.44;4961453;28;20130;-86
2022/01/08 11:59:21;;;;;;;7.00;3.15;;;;;;;2.04;100.00;94012.44;4961019;28;20500;-86
2022/01/08 12:02:36;;;;;;;4.32;2.40;;;;;;;2.15;100.00;94001.34;4942226;28;20038;-86
2022/01/08 12:05:02;;;;;;;4.93;2.50;;;;;;;2.18;100.00;94002.72;4884233;29;20111;-86
2022/01/08 12:07:35;;;;;;;6.32;2.78;;;;;;;2.03;100.00;93998.75;4952600;28;20039;-86
2022/01/08 12:10:23;;;;;;;6.25;2.92;;;;;;;2.03;100.00;93997.97;4961265;28;20035;-86
2022/01/08 12:12:59;;;;;;;4.78;2.28;;;;;;;2.14;100.00;93998.97;4961063;28;20089;-86
2022/01/08 12:15:40;;;;;;;4.43;2.42;;;;;;;2.26;100.00;93999.78;4977970;28;20027;-86
2022/01/08 12:18:10;;;;;;;4.35;2.40;;;;;;;2.17;100.00;93990.81;4977930;28;20117;-86
2022/01/08 12:20:51;;;;;;;6.28;2.92;;;;;;;2.12;100.00;93981.13;4944756;28;20031;-86
2022/01/08 12:23:38;;;;;;;5.95;2.50;;;;;;;2.03;100.00;93985.84;4977952;28;20031;-86
2022/01/08 12:26:09;;;;;;;6.07;2.92;;;;;;;2.11;100.00;93975.16;4944583;28;20355;-86
2022/01/08 12:28:47;;;;;;;7.63;2.67;;;;;;;2.16;100.00;93973.72;4961253;28;20034;-86
2022/01/08 12:31:30;;;;;;;4.03;2.35;;;;;;;2.38;100.00;93969.56;4978094;28;20031;-86
2022/01/08 12:34:31;;;;;;;4.57;2.75;;;;;;;2.50;100.00;93966.94;4978079;28;20042;-86
2022/01/08 12:37:16;;;;;;;5.72;2.75;;;;;;;2.56;100.00;93961.91;4944864;28;20440;-86
2022/01/08 12:39:43;;;;;;;6.10;2.75;;;;;;;2.45;100.00;93964.28;4960772;28;20027;-86
2022/01/08 12:42:26;;;;;;;5.68;2.70;;;;;;;2.72;100.00;93970.75;4976735;28;20039;-86
2022/01/08 12:44:59;;;;;;;5.57;2.75;;;;;;;2.71;100.00;93974.34;4976975;28;20165;-86
2022/01/08 12:47:45;;;;;;;5.30;2.80;;;;;;;2.72;100.00;93976.72;4960548;28;20038;-86
2022/01/08 12:50:18;;;;;;;5.35;2.50;;;;;;;2.42;100.00;93971.69;4944584;28;20081;-86
2022/01/08 12:53:06;;;;;;;5.75;2.95;;;;;;;2.68;100.00;93970.44;4960804;28;20039;-86
2022/01/08 12:55:38;;;;;;;5.05;2.60;;;;;;;2.62;100.00;93979.91;4976539;28;20423;-86
2022/01/08 12:58:14;;;;;;;4.78;2.53;;;;;;;2.51;100.00;93976.31;4960786;28;20027;-86
2022/01/08 13:01:02;;;;;;;6.05;2.92;;;;;;;2.76;100.00;93977.06;4977928;28;20495;-86
2022/01/08 13:03:39;;;;;;;5.65;2.80;;;;;;;2.83;100.00;93980.31;4977524;28;20525;-87
2022/01/08 13:06:19;;;;;;;5.53;2.90;;;;;;;2.90;100.00;93973.22;4960768;28;20082;-86
2022/01/08 13:08:46;;;;;;;5.53;3.08;;;;;;;2.91;100.00;93967.03;4960766;28;20030;-87
2022/01/08 13:11:16;;;;;;;7.57;3.40;;;;;;;2.91;100.00;93968.81;4960979;28;20041;-86
2022/01/08 13:13:55;;;;;;;6.15;3.13;;;;;;;2.97;100.00;93963.50;4960662;28;20035;-86
2022/01/08 13:16:41;;;;;;;7.63;3.22;;;;;;;3.16;100.00;93959.97;4944948;28;20027;-86
2022/01/08 13:19:12;;;;;;;7.43;3.45;;;;;;;3.22;100.00;93954.66;4977705;28;20314;-86
2022/01/08 13:21:42;;;;;;;5.45;3.00;;;;;;;3.00;100.00;93962.28;4960381;28;20039;-86
2022/01/08 13:24:26;;;;;;;4.75;3.03;;;;;;;2.94;100.00;93961.38;4944659;28;20031;-86
2022/01/08 13:27:02;;;;;;;4.90;2.90;;;;;;;2.74;99.46;93953.22;4962294;28;20383;-86
2022/01/08 13:29:32;;;;;;;9.05;3.33;;;;;;;2.54;100.00;93955.16;4964027;28;20026;-86